createdAt,value
2022-12-04T00:02:55.920Z,5.81
2022-12-04T00:06:59.273Z,5.86
2022-12-04T00:11:03.113Z,5.89
2022-12-04T00:19:32.561Z,6.01
2022-12-04T00:23:36.638Z,6.01
2022-12-04T00:27:40.227Z,6.03
2022-12-04T00:31:43.930Z,6.07
2022-12-04T00:35:49.057Z,6.13
2022-12-04T00:39:52.849Z,6.20
2022-12-04T00:43:56.120Z,6.26
2022-12-04T00:47:59.597Z,6.32
2022-12-04T00:52:04.625Z,6.40
2022-12-04T00:56:09.569Z,6.46
2022-12-04T01:00:13.492Z,6.51
2022-12-04T01:04:17.100Z,6.55
2022-12-04T01:08:23.947Z,6.60
2022-12-04T01:12:27.653Z,6.62
2022-12-04T01:16:34.114Z,6.62
2022-12-04T01:20:37.769Z,6.64
2022-12-04T01:24:42.882Z,6.67
2022-12-04T01:28:47.833Z,6.67
2022-12-04T01:32:51.443Z,6.70
2022-12-04T01:36:55.020Z,6.72
2022-12-04T01:40:59.944Z,6.73
2022-12-04T01:45:39.174Z,6.74
2022-12-04T01:49:46.939Z,6.78
2022-12-04T01:53:54.694Z,6.79
2022-12-04T01:57:59.589Z,6.77
2022-12-04T02:02:07.387Z,6.77
2022-12-04T02:06:11.044Z,6.73
2022-12-04T02:10:15.441Z,6.70
2022-12-04T02:14:32.848Z,6.65
2022-12-04T02:18:42.918Z,6.61
2022-12-04T02:23:07.964Z,6.58
2022-12-04T02:27:20.385Z,6.55
2022-12-04T02:31:33.616Z,6.53
2022-12-04T02:35:41.741Z,6.48
2022-12-04T02:39:53.573Z,6.45
2022-12-04T02:44:03.405Z,6.43
2022-12-04T02:48:09.524Z,6.43
2022-12-04T02:52:16.397Z,6.44
2022-12-04T02:56:25.750Z,6.45
2022-12-04T03:00:31.003Z,6.48
2022-12-04T03:04:37.538Z,6.52
2022-12-04T03:08:45.640Z,6.60
2022-12-04T03:12:54.117Z,6.66
2022-12-04T03:17:03.642Z,6.73
2022-12-04T03:21:12.803Z,6.78
2022-12-04T03:25:16.739Z,6.79
2022-12-04T03:29:23.228Z,6.84
2022-12-04T03:33:32.609Z,6.90
2022-12-04T03:37:42.402Z,6.97
2022-12-04T03:41:57.045Z,7.03
2022-12-04T03:46:06.231Z,7.07
2022-12-04T03:50:15.108Z,7.08
2022-12-04T03:54:23.832Z,7.08
2022-12-04T03:58:32.196Z,7.11
2022-12-04T04:02:41.732Z,7.12
2022-12-04T04:06:48.863Z,7.13
2022-12-04T04:10:57.386Z,7.14
2022-12-04T04:15:21.975Z,7.13
2022-12-04T04:19:46.711Z,7.12
2022-12-04T04:24:10.486Z,7.09
2022-12-04T04:28:34.581Z,7.12
2022-12-04T04:32:42.722Z,7.11
2022-12-04T04:36:56.528Z,7.11
2022-12-04T04:41:02.901Z,7.13
2022-12-04T04:45:14.666Z,7.17
2022-12-04T04:49:21.134Z,7.22
2022-12-04T04:53:32.077Z,7.25
2022-12-04T04:57:37.943Z,7.29
2022-12-04T05:01:44.531Z,7.31
2022-12-04T05:05:48.190Z,7.33
2022-12-04T05:09:51.693Z,7.34
2022-12-04T05:13:55.243Z,7.41
2022-12-04T05:17:59.938Z,7.39
2022-12-04T05:22:03.397Z,7.43
2022-12-04T05:26:07.570Z,7.52
2022-12-04T05:30:13.701Z,7.53
2022-12-04T05:34:18.329Z,7.50
2022-12-04T05:38:21.838Z,7.44
2022-12-04T05:42:25.267Z,7.33
2022-12-04T05:46:28.292Z,7.45
2022-12-04T05:50:32.862Z,7.38
2022-12-04T05:54:36.370Z,7.48
2022-12-04T05:58:40.682Z,7.46
2022-12-04T06:02:44.196Z,7.47
2022-12-04T06:06:48.936Z,7.48
2022-12-04T06:10:52.392Z,7.49
2022-12-04T06:14:55.972Z,7.50
2022-12-04T06:19:02.754Z,7.47
2022-12-04T06:23:07.627Z,7.48
2022-12-04T06:27:27.202Z,7.49
2022-12-04T06:31:34.158Z,7.41
2022-12-04T06:35:37.241Z,7.37
2022-12-04T06:39:42.178Z,7.38
2022-12-04T06:43:46.036Z,7.37
2022-12-04T06:47:49.145Z,7.42
2022-12-04T06:51:52.839Z,7.50
2022-12-04T06:55:59.614Z,7.51
2022-12-04T07:00:04.087Z,7.65
2022-12-04T07:04:07.186Z,7.66
2022-12-04T07:08:10.969Z,7.78
2022-12-04T07:12:15.601Z,7.90
2022-12-04T07:16:23.543Z,8.06
2022-12-04T07:20:27.393Z,8.21
2022-12-04T07:24:31.042Z,8.27
2022-12-04T07:28:36.100Z,8.38
2022-12-04T07:32:39.825Z,8.36
2022-12-04T07:36:43.428Z,8.54
2022-12-04T07:40:46.985Z,8.61
2022-12-04T07:44:51.413Z,8.78
2022-12-04T07:48:56.769Z,8.86
2022-12-04T07:53:00.482Z,8.93
2022-12-04T07:57:04.166Z,9.01
2022-12-04T08:01:12.627Z,9.16
2022-12-04T08:05:16.104Z,9.32
2022-12-04T08:09:19.724Z,9.46
2022-12-04T08:13:23.865Z,9.61
2022-12-04T08:17:30.606Z,9.75
2022-12-04T08:21:34.510Z,9.84
2022-12-04T08:25:40.615Z,10.04
2022-12-04T08:29:44.662Z,10.23
2022-12-04T08:33:51.012Z,10.45
2022-12-04T08:37:54.621Z,10.63
2022-12-04T08:41:58.022Z,10.82
2022-12-04T08:46:02.545Z,10.93
2022-12-04T08:50:09.216Z,11.11
2022-12-04T08:54:15.287Z,11.19
2022-12-04T08:58:18.640Z,11.21
2022-12-04T09:02:22.645Z,11.19
2022-12-04T09:06:28.320Z,11.07
2022-12-04T09:10:31.933Z,10.83
2022-12-04T09:14:35.517Z,10.58
2022-12-04T09:18:40.618Z,10.40
2022-12-04T09:23:03.508Z,10.29
2022-12-04T09:27:14.348Z,10.13
2022-12-04T09:31:20.057Z,10.13
2022-12-04T09:35:23.476Z,9.95
2022-12-04T09:39:27.859Z,9.82
2022-12-04T09:43:34.305Z,9.74
2022-12-04T09:47:43.391Z,9.61
2022-12-04T09:51:47.577Z,9.53
2022-12-04T09:55:57.973Z,9.50
2022-12-04T10:00:01.244Z,9.47
2022-12-04T10:04:06.629Z,9.49
2022-12-04T10:08:17.547Z,9.50
2022-12-04T10:12:29.705Z,9.53
2022-12-04T10:16:43.900Z,9.61
2022-12-04T10:21:03.078Z,9.64
2022-12-04T10:25:15.234Z,9.80
2022-12-04T10:29:24.452Z,9.84
2022-12-04T10:33:38.747Z,9.91
2022-12-04T10:37:43.719Z,10.02
2022-12-04T10:41:53.912Z,10.10
2022-12-04T10:45:59.304Z,10.19
2022-12-04T10:50:14.395Z,10.27
2022-12-04T10:54:23.309Z,10.35
2022-12-04T10:58:27.705Z,10.34
2022-12-04T11:02:35.247Z,10.36
2022-12-04T11:06:40.328Z,10.33
2022-12-04T11:10:45.606Z,10.22
2022-12-04T11:14:48.902Z,10.21
2022-12-04T11:18:53.636Z,10.12
2022-12-04T11:22:59.233Z,10.08
2022-12-04T11:27:03.867Z,10.02
2022-12-04T11:31:08.685Z,9.99
2022-12-04T11:35:19.102Z,10.00
2022-12-04T11:39:30.228Z,10.00
2022-12-04T11:43:34.880Z,10.00
2022-12-04T11:47:38.461Z,10.00
2022-12-04T11:51:56.206Z,9.99
2022-12-04T11:56:22.624Z,10.02
2022-12-04T12:00:27.719Z,10.01
2022-12-04T12:05:01.965Z,10.00
2022-12-04T12:09:25.430Z,10.02
2022-12-04T12:13:37.075Z,10.01
2022-12-04T12:17:48.730Z,10.02
2022-12-04T12:22:03.445Z,10.02
2022-12-04T12:26:15.273Z,9.99
2022-12-04T12:30:20.966Z,9.98
2022-12-04T12:34:37.963Z,9.94
2022-12-04T12:38:46.194Z,9.91
2022-12-04T12:42:58.660Z,9.91
2022-12-04T12:47:08.767Z,9.92
2022-12-04T12:51:29.950Z,9.90
2022-12-04T12:55:38.212Z,9.87
2022-12-04T12:59:48.588Z,9.80
2022-12-04T13:03:58.467Z,9.75
2022-12-04T13:08:15.938Z,9.72
2022-12-04T13:12:21.415Z,9.65
2022-12-04T13:16:34.205Z,9.63
2022-12-04T13:20:44.255Z,9.62
2022-12-04T13:25:09.968Z,9.56
2022-12-04T13:29:28.208Z,9.52
2022-12-04T13:34:14.819Z,9.47
2022-12-04T13:38:29.890Z,9.44
2022-12-04T13:42:34.695Z,9.39
2022-12-04T13:46:41.158Z,9.35
2022-12-04T13:50:45.334Z,9.31
2022-12-04T13:55:00.433Z,9.20
2022-12-04T13:59:06.820Z,9.22
2022-12-04T14:03:27.153Z,9.16
2022-12-04T14:07:33.897Z,9.19
2022-12-04T14:11:48.046Z,9.17
2022-12-04T14:16:05.385Z,9.18
2022-12-04T14:20:23.088Z,9.18
2022-12-04T14:24:37.396Z,9.14
2022-12-04T14:28:45.797Z,9.07
2022-12-04T14:32:50.898Z,9.03
2022-12-04T14:36:56.824Z,9.01
2022-12-04T14:41:01.757Z,8.98
2022-12-04T14:45:19.084Z,8.99
2022-12-04T14:49:31.962Z,9.00
2022-12-04T14:53:39.542Z,9.02
2022-12-04T14:57:51.981Z,9.00
2022-12-04T15:02:00.417Z,8.93
2022-12-04T15:06:06.054Z,8.88
2022-12-04T15:10:38.506Z,8.78
2022-12-04T15:14:47.518Z,8.77
2022-12-04T15:19:01.397Z,8.72
2022-12-04T15:23:05.566Z,8.68
2022-12-04T15:27:09.646Z,8.64
2022-12-04T15:31:19.037Z,8.54
2022-12-04T15:35:28.922Z,8.52
2022-12-04T15:39:35.390Z,8.45
2022-12-04T15:43:43.406Z,8.39
2022-12-04T15:52:10.279Z,8.24
2022-12-04T15:56:19.371Z,8.17
2022-12-04T16:00:29.099Z,8.14
2022-12-04T16:04:38.836Z,8.04
2022-12-04T16:08:48.125Z,7.99
2022-12-04T16:12:55.026Z,7.97
2022-12-04T16:17:05.865Z,7.89
2022-12-04T16:21:17.334Z,7.81
2022-12-04T16:25:22.379Z,7.79
2022-12-04T16:29:25.649Z,7.71
2022-12-04T16:33:31.334Z,7.70
2022-12-04T16:37:40.160Z,7.59
2022-12-04T16:41:45.435Z,7.58
2022-12-04T16:45:53.241Z,7.49
2022-12-04T16:49:56.304Z,7.49
2022-12-04T16:53:59.963Z,7.55
2022-12-04T16:58:05.903Z,7.50
2022-12-04T17:02:29.513Z,7.53
2022-12-04T17:06:33.674Z,7.55
2022-12-04T17:10:51.978Z,7.58
2022-12-04T17:14:57.391Z,7.57
2022-12-04T17:19:01.145Z,7.62
2022-12-04T17:23:05.631Z,7.62
2022-12-04T17:27:13.677Z,7.57
2022-12-04T17:31:22.694Z,7.57
2022-12-04T17:35:26.616Z,7.56
2022-12-04T17:39:30.274Z,7.43
2022-12-04T17:43:33.874Z,7.55
2022-12-04T17:47:39.318Z,7.55
2022-12-04T17:51:43.058Z,7.58
2022-12-04T17:55:50.884Z,7.52
2022-12-04T17:59:54.642Z,7.57
2022-12-04T18:04:02.092Z,7.58
2022-12-04T18:08:14.676Z,7.55
2022-12-04T18:12:18.477Z,7.57
2022-12-04T18:16:21.754Z,7.51
2022-12-04T18:20:27.117Z,7.57
2022-12-04T18:24:30.638Z,7.61
2022-12-04T18:28:34.741Z,7.63
2022-12-04T18:32:37.888Z,7.67
2022-12-04T18:36:45.867Z,7.66
2022-12-04T18:40:50.534Z,7.67
2022-12-04T18:44:54.437Z,7.69
2022-12-04T18:49:00.695Z,7.68
2022-12-04T18:53:05.513Z,7.68
2022-12-04T18:57:09.812Z,7.69
2022-12-04T19:01:19.277Z,7.70
2022-12-04T19:05:23.388Z,7.70
2022-12-04T19:10:02.563Z,7.75
2022-12-04T19:13:55.456Z,7.79
2022-12-04T19:17:58.997Z,7.80
2022-12-04T19:22:02.956Z,7.83
2022-12-04T19:26:10.897Z,7.81
2022-12-04T19:30:16.387Z,7.87
2022-12-04T19:34:23.559Z,7.84
2022-12-04T19:38:27.161Z,7.90
2022-12-04T19:42:34.395Z,7.87
2022-12-04T19:46:38.163Z,7.88
2022-12-04T19:50:43.519Z,7.85
2022-12-04T19:54:47.439Z,7.82
2022-12-04T19:58:58.420Z,7.78
2022-12-04T20:03:02.915Z,7.75
2022-12-04T20:07:08.144Z,7.73
2022-12-04T20:11:16.289Z,7.73
2022-12-04T20:15:20.748Z,7.75
2022-12-04T20:19:27.450Z,7.75
2022-12-04T20:23:31.961Z,7.75
2022-12-04T20:27:37.207Z,7.65
2022-12-04T20:31:45.988Z,7.79
2022-12-04T20:35:49.679Z,7.79
2022-12-04T20:39:53.158Z,7.74
2022-12-04T20:43:57.276Z,7.78
2022-12-04T20:48:01.900Z,7.78
2022-12-04T20:52:06.144Z,7.77
2022-12-04T20:56:09.953Z,7.77
2022-12-04T21:00:15.135Z,7.74
2022-12-04T21:04:20.745Z,7.72
2022-12-04T21:08:53.889Z,7.64
2022-12-04T21:13:14.994Z,7.61
2022-12-04T21:17:20.956Z,7.54
2022-12-04T21:21:27.548Z,7.46
2022-12-04T21:25:31.293Z,7.40
2022-12-04T21:29:35.788Z,7.33
2022-12-04T21:33:39.600Z,7.29
2022-12-04T21:37:44.213Z,7.24
2022-12-04T21:42:01.583Z,7.19
2022-12-04T21:46:09.548Z,7.14
2022-12-04T21:50:13.685Z,7.07
2022-12-04T21:54:18.757Z,7.02
2022-12-04T21:58:23.703Z,6.95
2022-12-04T22:02:27.210Z,6.89
2022-12-04T22:06:33.724Z,6.79
2022-12-04T22:10:42.087Z,6.69
2022-12-04T22:14:45.593Z,6.57
2022-12-04T22:18:48.610Z,6.44
2022-12-04T22:22:52.036Z,6.34
2022-12-04T22:26:56.454Z,6.27
2022-12-04T22:31:04.161Z,6.23
2022-12-04T22:35:08.256Z,6.20
2022-12-04T22:39:11.647Z,6.16
2022-12-04T22:43:16.505Z,6.11
2022-12-04T22:47:20.048Z,6.04
2022-12-04T22:51:24.157Z,5.98
2022-12-04T22:55:28.684Z,5.92
2022-12-04T22:59:33.547Z,5.83
2022-12-04T23:03:36.976Z,5.79
2022-12-04T23:07:40.372Z,5.75
2022-12-04T23:11:44.606Z,5.80
2022-12-04T23:15:50.758Z,5.88
2022-12-04T23:19:54.516Z,5.92
2022-12-04T23:23:59.314Z,5.94
2022-12-04T23:28:02.921Z,5.91
2022-12-04T23:32:08.017Z,5.86
2022-12-04T23:36:13.336Z,5.80
2022-12-04T23:40:17.004Z,5.74
2022-12-04T23:44:20.369Z,5.67
2022-12-04T23:48:25.354Z,5.58
2022-12-04T23:52:28.867Z,5.52
2022-12-04T23:56:33.085Z,5.50
